createdAt,value
2023-03-02T00:00:59.384Z,58.76
2023-03-02T00:03:29.023Z,59.46
2023-03-02T00:05:57.952Z,58.89
2023-03-02T00:08:26.145Z,58.68
2023-03-02T00:10:56.940Z,58.91
2023-03-02T00:13:25.406Z,59.39
2023-03-02T00:15:53.305Z,60.21
2023-03-02T00:18:21.269Z,59.69
2023-03-02T00:20:49.137Z,59.98
2023-03-02T00:23:17.073Z,59.33
2023-03-02T00:25:44.951Z,59.54
2023-03-02T00:28:14.193Z,60.12
2023-03-02T00:30:42.118Z,60.49
2023-03-02T00:33:10.074Z,60.19
2023-03-02T00:35:39.323Z,60.21
2023-03-02T00:38:07.537Z,60.07
2023-03-02T00:40:35.431Z,60.07
2023-03-02T00:43:03.685Z,60.28
2023-03-02T00:45:33.017Z,59.84
2023-03-02T00:48:00.964Z,60.61
2023-03-02T00:50:28.913Z,60.05
2023-03-02T00:52:56.996Z,59.75
2023-03-02T00:55:24.904Z,59.89
2023-03-02T00:57:55.931Z,60.39
2023-03-02T01:00:29.448Z,59.83
2023-03-02T01:03:03.345Z,60.87
2023-03-02T01:05:31.720Z,60.74
2023-03-02T01:07:59.746Z,60.58
2023-03-02T01:10:27.627Z,60.05
2023-03-02T01:12:55.528Z,60.03
2023-03-02T01:15:23.631Z,60.42
2023-03-02T01:17:51.518Z,61.67
2023-03-02T01:20:21.191Z,61.07
2023-03-02T01:22:49.209Z,61.05
2023-03-02T01:25:17.101Z,61.16
2023-03-02T01:27:45.153Z,61.28
2023-03-02T01:30:14.287Z,61.74
2023-03-02T01:32:42.193Z,60.73
2023-03-02T01:35:10.765Z,60.80
2023-03-02T01:37:40.065Z,61.86
2023-03-02T01:40:09.378Z,61.27
2023-03-02T01:42:40.653Z,61.54
2023-03-02T01:45:46.611Z,61.80
2023-03-02T01:48:22.652Z,62.40
2023-03-02T01:50:51.126Z,61.97
2023-03-02T01:53:22.044Z,61.41
2023-03-02T01:55:50.166Z,61.52
2023-03-02T01:58:19.779Z,61.43
2023-03-02T02:00:48.219Z,62.48
2023-03-02T02:03:21.073Z,62.87
2023-03-02T02:06:05.028Z,62.39
2023-03-02T02:08:35.094Z,62.87
2023-03-02T02:11:03.246Z,62.73
2023-03-02T02:13:31.501Z,63.10
2023-03-02T02:15:59.387Z,63.26
2023-03-02T02:18:28.003Z,63.09
2023-03-02T02:20:57.295Z,63.00
2023-03-02T02:23:34.713Z,63.16
2023-03-02T02:26:18.432Z,63.72
2023-03-02T02:28:57.788Z,63.11
2023-03-02T02:31:34.642Z,63.72
2023-03-02T02:34:08.066Z,63.71
2023-03-02T02:36:39.916Z,64.18
2023-03-02T02:39:18.852Z,64.30
2023-03-02T02:41:50.297Z,64.58
2023-03-02T02:44:20.020Z,64.54
2023-03-02T02:46:48.080Z,64.77
2023-03-02T02:49:27.141Z,64.90
2023-03-02T02:51:55.219Z,64.61
2023-03-02T02:54:24.350Z,65.28
2023-03-02T02:56:55.308Z,65.33
2023-03-02T02:59:26.860Z,65.11
2023-03-02T03:01:54.960Z,64.86
2023-03-02T03:04:27.576Z,65.60
2023-03-02T03:06:58.267Z,65.44
2023-03-02T03:09:27.737Z,65.74
2023-03-02T03:11:59.207Z,65.63
2023-03-02T03:14:30.586Z,65.77
2023-03-02T03:16:58.959Z,65.76
2023-03-02T03:19:30.392Z,65.48
2023-03-02T03:22:02.853Z,65.52
2023-03-02T03:24:36.553Z,65.62
2023-03-02T03:27:09.528Z,65.98
2023-03-02T03:29:42.398Z,66.18
2023-03-02T03:32:12.663Z,66.79
2023-03-02T03:34:42.564Z,66.63
2023-03-02T03:37:20.247Z,66.97
2023-03-02T03:39:48.810Z,66.98
2023-03-02T03:42:19.678Z,66.44
2023-03-02T03:44:48.444Z,66.13
2023-03-02T03:47:16.401Z,66.23
2023-03-02T03:49:44.745Z,66.86
2023-03-02T03:52:12.883Z,66.75
2023-03-02T03:54:41.142Z,66.50
2023-03-02T03:57:12.005Z,67.02
2023-03-02T03:59:41.902Z,67.65
2023-03-02T04:02:09.944Z,67.99
2023-03-02T04:04:41.785Z,67.46
2023-03-02T04:07:16.030Z,68.22
2023-03-02T04:09:45.363Z,68.67
2023-03-02T04:12:15.485Z,68.33
2023-03-02T04:14:52.661Z,68.18
2023-03-02T04:17:20.734Z,67.99
2023-03-02T04:19:51.262Z,68.59
2023-03-02T04:22:20.054Z,68.52
2023-03-02T04:24:48.506Z,68.44
2023-03-02T04:27:17.298Z,68.83
2023-03-02T04:29:46.500Z,68.39
2023-03-02T04:32:16.465Z,68.26
2023-03-02T04:34:49.173Z,68.52
2023-03-02T04:37:17.312Z,68.28
2023-03-02T04:39:47.414Z,68.31
2023-03-02T04:42:15.421Z,68.54
2023-03-02T04:44:43.326Z,68.72
2023-03-02T04:47:11.892Z,68.60
2023-03-02T04:49:41.276Z,69.39
2023-03-02T04:52:09.201Z,69.58
2023-03-02T04:54:37.390Z,70.28
2023-03-02T04:57:05.342Z,69.56
2023-03-02T04:59:33.251Z,69.06
2023-03-02T05:02:02.241Z,69.39
2023-03-02T05:04:31.400Z,69.63
2023-03-02T05:07:00.789Z,70.66
2023-03-02T05:09:30.838Z,71.13
2023-03-02T05:12:00.762Z,70.72
2023-03-02T05:14:28.903Z,71.74
2023-03-02T05:16:56.810Z,71.73
2023-03-02T05:19:24.696Z,70.60
2023-03-02T05:21:52.650Z,70.88
2023-03-02T05:24:21.923Z,71.66
2023-03-02T05:26:49.817Z,71.54
2023-03-02T05:29:17.864Z,72.36
2023-03-02T05:31:46.830Z,72.37
2023-03-02T05:34:17.154Z,72.49
2023-03-02T05:36:46.174Z,72.85
2023-03-02T05:39:14.077Z,72.05
2023-03-02T05:41:43.457Z,72.52
2023-03-02T05:44:12.577Z,71.73
2023-03-02T05:46:41.191Z,71.48
2023-03-02T05:49:10.540Z,71.21
2023-03-02T05:51:38.470Z,70.75
2023-03-02T05:54:06.405Z,70.16
2023-03-02T05:56:34.641Z,69.71
2023-03-02T05:59:04.044Z,71.23
2023-03-02T06:01:32.178Z,71.08
2023-03-02T06:04:00.216Z,71.87
2023-03-02T06:06:28.075Z,71.99
2023-03-02T06:08:55.974Z,71.73
2023-03-02T06:11:23.863Z,72.04
2023-03-02T06:13:51.773Z,71.45
2023-03-02T06:16:21.017Z,71.52
2023-03-02T06:18:48.881Z,70.97
2023-03-02T06:21:16.732Z,72.05
2023-03-02T06:23:44.638Z,71.19
2023-03-02T06:26:13.119Z,71.08
2023-03-02T06:28:52.273Z,70.40
2023-03-02T06:31:22.913Z,71.22
2023-03-02T06:33:50.919Z,70.78
2023-03-02T06:36:18.870Z,71.47
2023-03-02T06:38:46.849Z,71.81
2023-03-02T06:41:14.625Z,71.24
2023-03-02T06:43:42.485Z,71.03
2023-03-02T06:46:10.376Z,70.95
2023-03-02T06:48:39.755Z,69.76
2023-03-02T06:51:08.260Z,69.70
2023-03-02T06:53:36.158Z,69.33
2023-03-02T06:56:04.048Z,69.86
2023-03-02T06:58:31.880Z,70.00
2023-03-02T07:00:59.780Z,68.81
2023-03-02T07:03:27.736Z,69.75
2023-03-02T07:05:57.029Z,68.84
2023-03-02T07:08:25.040Z,67.60
2023-03-02T07:10:52.987Z,68.55
2023-03-02T07:13:21.212Z,67.79
2023-03-02T07:15:49.247Z,68.21
2023-03-02T07:18:17.130Z,68.12
2023-03-02T07:20:45.087Z,67.66
2023-03-02T07:23:14.307Z,67.06
2023-03-02T07:25:42.279Z,65.80
2023-03-02T07:28:10.120Z,67.37
2023-03-02T07:30:37.995Z,67.38
2023-03-02T07:33:05.877Z,67.85
2023-03-02T07:35:33.781Z,68.93
2023-03-02T07:38:01.649Z,69.23
2023-03-02T07:40:30.932Z,69.85
2023-03-02T07:42:58.751Z,69.70
2023-03-02T07:45:26.726Z,69.50
2023-03-02T07:47:54.633Z,68.90
2023-03-02T07:50:22.513Z,67.84
2023-03-02T07:52:50.371Z,68.58
2023-03-02T07:55:18.320Z,68.10
2023-03-02T07:57:47.526Z,67.64
2023-03-02T08:00:16.524Z,67.31
2023-03-02T08:02:44.431Z,66.56
2023-03-02T08:05:13.548Z,66.51
2023-03-02T08:07:42.241Z,66.30
2023-03-02T08:10:11.731Z,68.13
2023-03-02T08:12:39.719Z,68.88
2023-03-02T08:15:10.440Z,68.10
2023-03-02T08:17:38.387Z,68.40
2023-03-02T08:20:07.421Z,68.60
2023-03-02T08:22:35.539Z,68.53
2023-03-02T08:25:03.623Z,66.83
2023-03-02T08:27:31.475Z,67.16
2023-03-02T08:29:59.357Z,67.58
2023-03-02T08:32:28.597Z,67.96
2023-03-02T08:34:56.798Z,67.57
2023-03-02T08:37:24.650Z,66.10
2023-03-02T08:39:52.823Z,66.35
2023-03-02T08:42:20.792Z,67.44
2023-03-02T08:44:48.669Z,66.95
2023-03-02T08:47:16.585Z,67.56
2023-03-02T08:49:48.017Z,66.75
2023-03-02T08:52:16.053Z,67.53
2023-03-02T08:54:43.943Z,66.96
2023-03-02T08:57:12.482Z,64.62
2023-03-02T08:59:40.426Z,66.95
2023-03-02T09:02:11.175Z,67.62
2023-03-02T09:04:39.472Z,65.37
2023-03-02T09:07:08.808Z,65.87
2023-03-02T09:09:36.858Z,64.49
2023-03-02T09:12:05.188Z,64.62
2023-03-02T09:14:33.076Z,65.24
2023-03-02T09:17:01.102Z,62.41
2023-03-02T09:19:29.053Z,64.86
2023-03-02T09:21:56.895Z,64.24
2023-03-02T09:24:26.130Z,63.00
2023-03-02T09:26:55.004Z,63.29
2023-03-02T09:29:22.834Z,63.37
2023-03-02T09:31:50.813Z,62.23
2023-03-02T09:34:18.784Z,60.95
2023-03-02T09:36:46.902Z,61.03
2023-03-02T09:39:14.751Z,60.30
2023-03-02T09:42:19.377Z,61.44
2023-03-02T09:45:04.632Z,59.58
2023-03-02T09:47:39.496Z,60.37
2023-03-02T09:50:27.155Z,59.01
2023-03-02T09:53:17.713Z,56.13
2023-03-02T09:55:48.451Z,56.06
2023-03-02T09:58:20.806Z,55.63
2023-03-02T10:00:49.080Z,56.20
2023-03-02T10:03:19.935Z,57.20
2023-03-02T10:05:50.420Z,57.64
2023-03-02T10:08:22.076Z,57.56
2023-03-02T10:10:58.968Z,57.45
2023-03-02T10:13:32.447Z,55.20
2023-03-02T10:16:12.099Z,54.49
2023-03-02T10:18:45.722Z,52.89
2023-03-02T10:21:21.513Z,53.64
2023-03-02T10:23:57.347Z,56.76
2023-03-02T10:26:38.456Z,54.62
2023-03-02T10:29:25.397Z,52.57
2023-03-02T10:31:59.205Z,53.57
2023-03-02T10:34:30.131Z,52.80
2023-03-02T10:36:59.179Z,53.28
2023-03-02T10:39:27.040Z,53.68
2023-03-02T10:42:00.522Z,53.50
2023-03-02T10:44:32.812Z,54.43
2023-03-02T10:47:01.495Z,56.20
2023-03-02T10:49:31.453Z,55.63
2023-03-02T10:52:18.292Z,51.99
2023-03-02T10:54:47.415Z,53.91
2023-03-02T10:57:36.576Z,54.05
2023-03-02T11:00:16.055Z,53.33
2023-03-02T11:02:51.154Z,51.71
2023-03-02T11:05:29.918Z,51.45
2023-03-02T11:07:59.551Z,52.32
2023-03-02T11:10:31.779Z,51.81
2023-03-02T11:13:01.094Z,50.80
2023-03-02T11:15:37.100Z,49.90
2023-03-02T11:18:09.700Z,50.54
2023-03-02T11:20:42.042Z,50.63
2023-03-02T11:23:19.985Z,51.47
2023-03-02T11:25:53.018Z,49.16
2023-03-02T11:28:32.869Z,50.13
2023-03-02T11:31:06.600Z,48.38
2023-03-02T11:33:40.959Z,50.15
2023-03-02T11:36:16.807Z,50.86
2023-03-02T11:38:49.321Z,51.07
2023-03-02T11:41:27.397Z,49.60
2023-03-02T11:43:55.641Z,51.24
2023-03-02T11:46:27.703Z,49.76
2023-03-02T11:48:58.500Z,51.40
2023-03-02T11:51:29.442Z,50.33
2023-03-02T11:54:02.379Z,48.99
2023-03-02T11:56:32.976Z,49.17
2023-03-02T11:59:05.724Z,47.69
2023-03-02T12:01:38.948Z,47.47
2023-03-02T12:04:09.569Z,47.75
2023-03-02T12:06:40.521Z,48.42
2023-03-02T12:09:12.959Z,49.04
2023-03-02T12:11:42.525Z,47.82
2023-03-02T12:14:27.023Z,47.06
2023-03-02T12:17:07.247Z,47.02
2023-03-02T12:19:42.594Z,47.28
2023-03-02T12:22:13.624Z,47.13
2023-03-02T12:24:43.495Z,49.82
2023-03-02T12:27:25.888Z,48.16
2023-03-02T12:30:10.484Z,48.19
2023-03-02T12:32:39.800Z,48.08
2023-03-02T12:35:13.301Z,48.38
2023-03-02T12:37:48.448Z,48.48
2023-03-02T12:40:30.587Z,49.80
2023-03-02T12:43:20.348Z,48.87
2023-03-02T12:46:05.424Z,49.28
2023-03-02T12:48:44.429Z,49.33
2023-03-02T12:51:18.282Z,50.33
2023-03-02T12:53:47.195Z,50.09
2023-03-02T12:56:24.029Z,50.84
2023-03-02T12:58:52.546Z,51.97
2023-03-02T13:01:23.561Z,53.12
2023-03-02T13:03:54.045Z,53.30
2023-03-02T13:06:24.143Z,52.23
2023-03-02T13:08:55.463Z,51.86
2023-03-02T13:11:28.434Z,52.07
2023-03-02T13:13:56.548Z,52.36
2023-03-02T13:16:25.890Z,52.80
2023-03-02T13:18:57.365Z,51.81
2023-03-02T13:21:32.511Z,52.72
2023-03-02T13:24:00.732Z,53.44
2023-03-02T13:26:31.337Z,53.08
2023-03-02T13:29:03.947Z,52.43
2023-03-02T13:31:32.879Z,52.10
2023-03-02T13:34:02.769Z,53.58
2023-03-02T13:36:36.329Z,53.07
2023-03-02T13:39:09.073Z,53.90
2023-03-02T13:41:40.605Z,53.71
2023-03-02T13:44:20.480Z,53.83
2023-03-02T13:46:48.926Z,54.37
2023-03-02T13:49:27.338Z,53.58
2023-03-02T13:52:01.794Z,56.06
2023-03-02T13:54:32.008Z,54.77
2023-03-02T13:57:02.273Z,54.69
2023-03-02T13:59:32.319Z,54.95
2023-03-02T14:02:01.152Z,54.79
2023-03-02T14:04:30.570Z,53.95
2023-03-02T14:06:58.522Z,54.62
2023-03-02T14:09:27.164Z,55.30
2023-03-02T14:11:57.813Z,55.94
2023-03-02T14:14:29.965Z,55.03
2023-03-02T14:16:57.997Z,55.88
2023-03-02T14:19:25.835Z,56.19
2023-03-02T14:21:55.063Z,56.95
2023-03-02T14:24:22.929Z,57.74
2023-03-02T14:26:51.188Z,57.55
2023-03-02T14:29:23.669Z,56.14
2023-03-02T14:31:52.195Z,55.81
2023-03-02T14:34:20.338Z,57.38
2023-03-02T14:36:50.928Z,57.16
2023-03-02T14:39:23.910Z,57.60
2023-03-02T14:41:54.717Z,57.93
2023-03-02T14:44:23.398Z,57.93
2023-03-02T14:46:51.358Z,58.40
2023-03-02T14:49:19.302Z,58.97
2023-03-02T14:51:56.519Z,59.80
2023-03-02T14:54:26.451Z,58.20
2023-03-02T14:56:54.399Z,58.72
2023-03-02T14:59:22.295Z,59.70
2023-03-02T15:01:50.198Z,59.50
2023-03-02T15:04:18.073Z,59.62
2023-03-02T15:06:47.418Z,59.29
2023-03-02T15:09:15.573Z,59.95
2023-03-02T15:11:45.022Z,60.46
2023-03-02T15:14:12.991Z,59.76
2023-03-02T15:16:42.777Z,59.72
2023-03-02T15:19:10.988Z,59.17
2023-03-02T15:21:41.543Z,58.73
2023-03-02T15:24:09.600Z,59.26
2023-03-02T15:26:39.066Z,58.99
2023-03-02T15:29:08.583Z,58.91
2023-03-02T15:31:36.790Z,59.02
2023-03-02T15:34:04.845Z,58.75
2023-03-02T15:36:32.754Z,58.54
2023-03-02T15:39:00.946Z,58.82
2023-03-02T15:41:29.111Z,59.54
2023-03-02T15:43:57.084Z,60.00
2023-03-02T15:46:27.164Z,60.65
2023-03-02T15:48:55.157Z,59.92
2023-03-02T15:51:23.860Z,59.67
2023-03-02T15:53:51.764Z,61.51
2023-03-02T15:56:19.631Z,61.34
2023-03-02T15:58:48.720Z,61.84
2023-03-02T16:01:17.215Z,60.95
2023-03-02T16:03:46.788Z,63.74
2023-03-02T16:06:15.738Z,62.52
2023-03-02T16:08:43.693Z,61.83
2023-03-02T16:11:18.670Z,62.38
2023-03-02T16:13:46.764Z,61.44
2023-03-02T16:16:14.677Z,62.70
2023-03-02T16:18:42.531Z,61.64
2023-03-02T16:21:14.377Z,61.97
2023-03-02T16:23:42.327Z,64.30
2023-03-02T16:26:12.299Z,61.69
2023-03-02T16:28:40.192Z,62.42
2023-03-02T16:31:09.641Z,61.99
2023-03-02T16:33:38.259Z,62.10
2023-03-02T16:36:08.492Z,63.65
2023-03-02T16:38:38.593Z,65.46
2023-03-02T16:41:14.367Z,65.80
2023-03-02T16:43:46.152Z,64.92
2023-03-02T16:46:14.614Z,65.62
2023-03-02T16:48:43.005Z,64.35
2023-03-02T16:51:11.281Z,66.43
2023-03-02T16:53:40.923Z,63.79
2023-03-02T16:56:09.431Z,65.39
2023-03-02T16:58:39.715Z,65.20
2023-03-02T17:01:09.621Z,65.15
2023-03-02T17:03:38.234Z,64.55
2023-03-02T17:06:06.725Z,66.55
2023-03-02T17:08:34.928Z,65.74
2023-03-02T17:11:04.760Z,66.88
2023-03-02T17:13:33.177Z,66.77
2023-03-02T17:16:01.392Z,65.65
2023-03-02T17:18:30.462Z,65.71
2023-03-02T17:20:59.943Z,65.06
2023-03-02T17:23:28.820Z,65.21
2023-03-02T17:25:56.696Z,64.37
2023-03-02T17:28:25.996Z,64.15
2023-03-02T17:30:54.162Z,65.58
2023-03-02T17:33:22.043Z,65.30
2023-03-02T17:35:50.164Z,65.05
2023-03-02T17:38:18.150Z,64.37
2023-03-02T17:40:46.077Z,65.35
2023-03-02T17:43:13.991Z,66.16
2023-03-02T17:45:43.204Z,66.93
2023-03-02T17:48:11.090Z,67.43
2023-03-02T17:50:45.984Z,66.99
2023-03-02T17:53:33.030Z,66.85
2023-03-02T17:56:08.911Z,66.04
2023-03-02T17:58:44.948Z,65.46
2023-03-02T18:01:16.233Z,66.44
2023-03-02T18:03:45.606Z,67.07
2023-03-02T18:06:14.313Z,67.24
2023-03-02T18:08:42.278Z,66.81
2023-03-02T18:11:10.303Z,67.21
2023-03-02T18:13:38.580Z,67.50
2023-03-02T18:16:07.682Z,67.48
2023-03-02T18:18:36.967Z,66.53
2023-03-02T18:21:05.386Z,68.15
2023-03-02T18:23:33.752Z,67.27
2023-03-02T18:26:01.666Z,68.95
2023-03-02T18:28:29.610Z,69.44
2023-03-02T18:30:58.002Z,67.99
2023-03-02T18:33:25.944Z,69.40
2023-03-02T18:35:55.204Z,69.49
2023-03-02T18:38:23.056Z,69.69
2023-03-02T18:40:50.916Z,69.53
2023-03-02T18:43:18.877Z,68.78
2023-03-02T18:45:46.680Z,68.29
2023-03-02T18:48:14.585Z,68.50
2023-03-02T18:50:42.484Z,68.80
2023-03-02T18:53:12.925Z,68.30
2023-03-02T18:55:41.364Z,67.78
2023-03-02T18:58:09.552Z,69.42
2023-03-02T19:00:37.528Z,70.75
2023-03-02T19:03:05.411Z,68.87
2023-03-02T19:05:33.341Z,68.84
2023-03-02T19:08:02.678Z,68.50
2023-03-02T19:10:32.023Z,69.60
2023-03-02T19:12:59.859Z,70.20
2023-03-02T19:15:27.976Z,69.50
2023-03-02T19:17:57.199Z,68.64
2023-03-02T19:20:27.174Z,70.01
2023-03-02T19:22:55.365Z,69.66
2023-03-02T19:25:24.332Z,69.62
2023-03-02T19:27:53.820Z,69.12
2023-03-02T19:30:24.443Z,69.64
2023-03-02T19:32:54.045Z,70.18
2023-03-02T19:35:23.843Z,70.57
2023-03-02T19:37:52.317Z,71.47
2023-03-02T19:40:21.916Z,69.59
2023-03-02T19:42:50.576Z,69.86
2023-03-02T19:45:22.852Z,71.02
2023-03-02T19:47:57.701Z,70.09
2023-03-02T19:50:26.589Z,70.42
2023-03-02T19:52:55.658Z,69.97
2023-03-02T19:55:24.260Z,71.03
2023-03-02T19:57:59.443Z,69.83
2023-03-02T20:00:30.977Z,70.42
2023-03-02T20:02:58.965Z,70.01
2023-03-02T20:05:28.089Z,69.96
2023-03-02T20:07:56.747Z,69.90
2023-03-02T20:10:31.439Z,70.66
2023-03-02T20:13:00.858Z,70.07
2023-03-02T20:15:32.464Z,70.52
2023-03-02T20:18:02.404Z,70.02
2023-03-02T20:20:30.945Z,70.92
2023-03-02T20:23:00.123Z,71.33
2023-03-02T20:25:28.903Z,71.75
2023-03-02T20:27:58.134Z,71.64
2023-03-02T20:30:34.753Z,71.09
2023-03-02T20:33:03.673Z,70.60
2023-03-02T20:35:34.073Z,70.08
2023-03-02T20:38:58.436Z,71.75
2023-03-02T20:42:37.311Z,70.31
2023-03-02T20:53:00.542Z,71.25
2023-03-02T20:58:25.831Z,71.87
2023-03-02T21:00:02.743Z,72.43
2023-03-02T21:02:36.710Z,73.66
2023-03-02T21:05:06.833Z,73.05
2023-03-02T21:07:35.806Z,74.01
2023-03-02T21:10:03.945Z,72.96
2023-03-02T21:12:33.160Z,74.41
2023-03-02T21:15:02.026Z,74.04
2023-03-02T21:17:30.687Z,74.13
2023-03-02T21:19:59.213Z,73.78
2023-03-02T21:22:28.744Z,75.39
2023-03-02T21:24:57.056Z,74.59
2023-03-02T21:27:25.015Z,74.44
2023-03-02T21:29:53.061Z,74.13
2023-03-02T21:32:21.016Z,73.36
2023-03-02T21:34:49.034Z,74.02
2023-03-02T21:37:16.919Z,75.02
2023-03-02T21:39:46.207Z,73.54
2023-03-02T21:42:14.088Z,74.51
2023-03-02T21:44:41.995Z,74.37
2023-03-02T21:47:09.999Z,73.35
2023-03-02T21:49:37.930Z,74.86
2023-03-02T21:52:07.777Z,73.33
2023-03-02T21:54:35.917Z,73.01
2023-03-02T21:57:05.226Z,72.11
2023-03-02T21:59:33.148Z,72.31
2023-03-02T22:02:01.090Z,71.78
2023-03-02T22:04:29.023Z,73.31
2023-03-02T22:06:56.881Z,72.01
2023-03-02T22:09:24.783Z,73.48
2023-03-02T22:11:52.823Z,72.86
2023-03-02T22:14:22.097Z,72.70
2023-03-02T22:16:52.075Z,71.91
2023-03-02T22:19:30.828Z,72.11
2023-03-02T22:22:00.939Z,71.92
2023-03-02T22:24:30.587Z,72.76
2023-03-02T22:27:00.674Z,72.66
2023-03-02T22:29:33.025Z,72.51
2023-03-02T22:32:14.058Z,72.46
2023-03-02T22:34:43.988Z,73.23
2023-03-02T22:37:14.915Z,73.39
2023-03-02T22:39:42.897Z,71.58
2023-03-02T22:42:15.070Z,73.52
2023-03-02T22:44:44.536Z,72.17
2023-03-02T22:47:17.768Z,72.58
2023-03-02T22:49:45.779Z,71.66
2023-03-02T22:52:17.376Z,71.50
2023-03-02T22:54:46.575Z,72.13
2023-03-02T22:57:26.065Z,72.70
2023-03-02T23:00:21.269Z,71.33
2023-03-02T23:02:49.490Z,70.70
2023-03-02T23:05:27.001Z,71.59
2023-03-02T23:08:00.800Z,72.05
2023-03-02T23:10:28.734Z,70.62
2023-03-02T23:12:56.663Z,71.41
2023-03-02T23:15:25.993Z,70.72
2023-03-02T23:17:54.013Z,70.84
2023-03-02T23:20:23.890Z,69.68
2023-03-02T23:22:52.050Z,69.71
2023-03-02T23:25:20.013Z,69.83
2023-03-02T23:27:47.975Z,70.55
2023-03-02T23:30:18.254Z,72.09
2023-03-02T23:32:47.690Z,70.99
2023-03-02T23:35:15.766Z,70.69
2023-03-02T23:37:44.435Z,70.99
2023-03-02T23:40:13.313Z,69.75
2023-03-02T23:42:41.232Z,70.33
2023-03-02T23:45:10.502Z,69.34
2023-03-02T23:47:38.386Z,70.25
2023-03-02T23:50:08.874Z,70.89
2023-03-02T23:52:36.764Z,69.71
2023-03-02T23:55:04.957Z,70.94
2023-03-02T23:57:33.229Z,70.67
